Savona, Canada
Current Conditions -  °F | °C
As of 12:16 PM on Sunday 21 Dec 2014 (Local Time) from CYKA Reporting Station
Scattered Clouds Scattered Clouds  
Wind Chill: 37°   Ceiling: Unl
Heat Index: 37°   Visibility: 40mi
Dew Point: 34°   Wind: 0mph
Humidity: 87%   Direction: NA
Pressure: 29.75"   Gusts: NA
Location:  50.75°N, 120.85°W
Report Text: CYKA 212016Z 00000KT 40SM FEW011 SCT016 SCT230 03/01 A2975 RMK SF1SC3CI1 SF TR CI TR SLP089
Loading
Personal Weather Stations






























Interactive Weather Map New forecast layout! Learn more

10-Day Weather Forecast

Advertisements
Track Severe Weather on mobile